createdAt,value
2019-03-03T00:01:52.159Z,7.20
2019-03-03T00:04:31.730Z,8.00
2019-03-03T00:07:10.916Z,7.60
2019-03-03T00:09:51.173Z,7.60
2019-03-03T00:12:31.154Z,8.70
2019-03-03T00:15:11.223Z,7.50
2019-03-03T00:17:51.226Z,7.50
2019-03-03T00:20:31.373Z,7.50
2019-03-03T00:23:11.647Z,7.50
2019-03-03T00:25:51.922Z,7.50
2019-03-03T00:28:31.857Z,8.80
2019-03-03T00:31:11.989Z,9.10
2019-03-03T00:33:52.211Z,7.60
2019-03-03T00:36:51.719Z,7.60
2019-03-03T00:39:43.938Z,7.60
2019-03-03T00:42:30.173Z,7.70
2019-03-03T00:45:29.207Z,7.60
2019-03-03T00:48:34.602Z,7.70
2019-03-03T00:51:33.867Z,7.70
2019-03-03T00:54:39.093Z,7.60
2019-03-03T00:57:30.553Z,8.70
2019-03-03T01:00:19.178Z,7.70
2019-03-03T01:03:18.323Z,7.80
2019-03-03T01:06:18.004Z,7.70
2019-03-03T01:09:04.064Z,8.10
2019-03-03T01:11:57.719Z,7.70
2019-03-03T01:14:57.242Z,7.70
2019-03-03T01:17:44.898Z,7.10
2019-03-03T01:20:44.711Z,8.10
2019-03-03T01:23:43.635Z,7.80
2019-03-03T01:26:23.215Z,7.70
2019-03-03T01:29:03.298Z,7.70
2019-03-03T01:31:42.555Z,8.00
2019-03-03T01:34:22.017Z,7.70
2019-03-03T01:37:01.824Z,8.00
2019-03-03T01:39:42.214Z,7.50
2019-03-03T01:42:22.219Z,7.70
2019-03-03T01:45:01.443Z,7.80
2019-03-03T01:47:41.848Z,8.70
2019-03-03T01:50:21.793Z,7.40
2019-03-03T01:53:01.591Z,7.80
2019-03-03T01:55:41.489Z,7.70
2019-03-03T01:58:21.791Z,7.60
2019-03-03T02:01:01.625Z,9.20
2019-03-03T02:03:41.611Z,7.40
2019-03-03T02:06:21.937Z,7.80
2019-03-03T02:09:01.781Z,7.50
2019-03-03T02:11:41.825Z,7.80
2019-03-03T02:14:21.855Z,7.80
2019-03-03T02:17:02.065Z,7.80
2019-03-03T02:19:42.197Z,8.70
2019-03-03T02:22:21.370Z,8.30
2019-03-03T02:25:01.198Z,7.90
2019-03-03T02:27:41.197Z,7.90
2019-03-03T02:30:20.564Z,7.60
2019-03-03T02:33:00.523Z,7.60
2019-03-03T02:35:27.339Z,7.90
2019-03-03T02:38:13.768Z,7.90
2019-03-03T02:41:00.276Z,7.90
2019-03-03T02:43:46.695Z,7.90
2019-03-03T02:46:33.205Z,8.10
2019-03-03T02:49:19.707Z,7.20
2019-03-03T02:51:59.733Z,9.20
2019-03-03T02:54:39.673Z,7.80
2019-03-03T02:57:19.707Z,7.90
2019-03-03T02:59:58.903Z,8.90
2019-03-03T03:02:44.397Z,7.80
2019-03-03T03:05:43.863Z,7.80
2019-03-03T03:08:30.620Z,7.90
2019-03-03T03:11:30.085Z,7.50
2019-03-03T03:14:35.069Z,7.90
2019-03-03T03:17:30.186Z,7.90
2019-03-03T03:20:29.709Z,7.90
2019-03-03T03:23:28.830Z,7.90
2019-03-03T03:26:27.819Z,7.90
2019-03-03T03:29:26.903Z,8.60
2019-03-03T03:32:26.032Z,7.50
2019-03-03T03:35:25.069Z,8.30
2019-03-03T03:38:24.028Z,7.10
2019-03-03T03:41:14.882Z,7.70
2019-03-03T03:44:14.247Z,7.50
2019-03-03T03:47:06.127Z,8.00
2019-03-03T03:50:08.448Z,9.20
2019-03-03T03:53:07.754Z,7.90
2019-03-03T03:56:06.954Z,7.80
2019-03-03T03:58:58.914Z,7.40
2019-03-03T04:01:58.314Z,7.50
2019-03-03T04:04:57.529Z,7.80
2019-03-03T04:07:56.573Z,8.60
2019-03-03T04:10:55.670Z,8.50
2019-03-03T04:13:54.680Z,7.70
2019-03-03T04:16:53.992Z,8.40
2019-03-03T04:19:53.122Z,8.30
2019-03-03T04:22:47.628Z,7.50
2019-03-03T04:25:49.356Z,7.80
2019-03-03T04:28:40.400Z,7.90
2019-03-03T04:31:26.844Z,8.00
2019-03-03T04:34:17.608Z,7.80
2019-03-03T04:37:18.267Z,8.40
2019-03-03T04:40:12.100Z,7.00
2019-03-03T04:43:17.380Z,8.40
2019-03-03T04:46:16.735Z,7.90
2019-03-03T04:49:16.174Z,8.00
2019-03-03T04:52:18.336Z,7.60
2019-03-03T04:55:17.934Z,8.00
2019-03-03T04:58:11.733Z,8.00
2019-03-03T05:01:11.191Z,7.90
2019-03-03T05:04:10.527Z,7.90
2019-03-03T05:07:09.829Z,7.40
2019-03-03T05:10:08.804Z,8.00
2019-03-03T05:12:56.670Z,8.20
2019-03-03T05:15:56.269Z,8.10
2019-03-03T05:19:01.330Z,7.80
2019-03-03T05:21:41.073Z,8.80
2019-03-03T05:24:21.130Z,7.50
2019-03-03T05:27:00.539Z,7.50
2019-03-03T05:29:39.826Z,7.40
2019-03-03T05:32:20.194Z,7.40
2019-03-03T05:35:00.356Z,8.00
2019-03-03T05:37:40.430Z,7.40
2019-03-03T05:40:19.849Z,7.50
2019-03-03T05:43:00.070Z,7.40
2019-03-03T05:45:40.230Z,6.30
2019-03-03T05:48:20.176Z,5.70
2019-03-03T05:51:00.154Z,7.00
2019-03-03T05:53:40.039Z,7.10
2019-03-03T05:56:19.242Z,7.30
2019-03-03T05:58:59.437Z,7.10
2019-03-03T06:01:39.511Z,7.00
2019-03-03T06:04:19.449Z,8.90
2019-03-03T06:06:59.376Z,7.40
2019-03-03T06:09:39.253Z,7.50
2019-03-03T06:12:19.341Z,7.60
2019-03-03T06:14:59.381Z,7.60
2019-03-03T06:17:39.187Z,7.50
2019-03-03T06:20:19.590Z,7.80
2019-03-03T06:22:59.505Z,7.90
2019-03-03T06:25:39.535Z,8.00
2019-03-03T06:28:19.545Z,8.00
2019-03-03T06:30:58.741Z,8.00
2019-03-03T06:33:38.733Z,9.40
2019-03-03T06:36:19.057Z,8.10
2019-03-03T06:38:58.236Z,8.30
2019-03-03T06:41:38.113Z,8.20
2019-03-03T06:44:18.195Z,8.90
2019-03-03T06:46:57.966Z,9.00
2019-03-03T06:49:37.236Z,8.40
2019-03-03T06:52:17.305Z,8.60
2019-03-03T06:54:57.360Z,8.90
2019-03-03T06:57:37.240Z,8.80
2019-03-03T07:00:17.224Z,8.50
2019-03-03T07:02:57.405Z,8.60
2019-03-03T07:08:38.325Z,8.60
2019-03-03T07:11:18.495Z,9.50
2019-03-03T07:13:57.962Z,10.60
2019-03-03T07:16:38.560Z,9.70
2019-03-03T07:19:18.342Z,9.10
2019-03-03T07:21:58.316Z,9.10
2019-03-03T07:24:38.470Z,8.80
2019-03-03T07:27:18.295Z,9.80
2019-03-03T07:29:58.245Z,9.30
2019-03-03T07:32:45.334Z,9.00
2019-03-03T07:35:24.537Z,9.30
2019-03-03T07:38:04.679Z,9.10
2019-03-03T07:40:44.868Z,8.20
2019-03-03T07:43:24.989Z,10.00
2019-03-03T07:46:05.068Z,9.50
2019-03-03T07:48:45.133Z,8.70
2019-03-03T07:51:25.181Z,9.20
2019-03-03T07:54:05.106Z,9.40
2019-03-03T07:56:44.301Z,9.50
2019-03-03T07:59:23.526Z,9.40
2019-03-03T08:02:03.433Z,9.80
2019-03-03T08:04:43.353Z,9.80
2019-03-03T08:07:22.570Z,9.40
2019-03-03T08:10:02.858Z,10.00
2019-03-03T08:12:42.814Z,11.30
2019-03-03T08:15:23.189Z,10.00
2019-03-03T08:18:02.965Z,10.60
2019-03-03T08:20:42.405Z,11.10
2019-03-03T08:23:22.537Z,11.10
2019-03-03T08:26:01.765Z,11.20
2019-03-03T08:28:41.344Z,11.10
2019-03-03T08:31:21.204Z,11.20
2019-03-03T08:33:48.435Z,12.70
2019-03-03T08:36:35.048Z,11.00
2019-03-03T08:39:21.478Z,11.00
2019-03-03T08:42:27.769Z,10.80
2019-03-03T08:48:49.491Z,9.40
2019-03-03T08:51:36.165Z,10.20
2019-03-03T08:54:43.222Z,10.20
2019-03-03T08:57:49.462Z,10.20
2019-03-03T09:00:36.470Z,10.00
2019-03-03T09:03:42.879Z,10.90
2019-03-03T09:06:49.270Z,10.40
2019-03-03T09:09:55.392Z,10.10
2019-03-03T09:13:01.689Z,11.70
2019-03-03T09:16:07.834Z,10.50
2019-03-03T09:19:00.446Z,10.40
2019-03-03T09:21:46.970Z,10.40
2019-03-03T09:24:53.265Z,10.60
2019-03-03T09:27:53.390Z,10.40
2019-03-03T09:30:40.002Z,10.50
2019-03-03T09:36:52.667Z,10.50
2019-03-03T09:40:08.835Z,10.20
2019-03-03T09:43:07.111Z,10.50
2019-03-03T09:46:13.382Z,11.40
2019-03-03T09:49:19.563Z,11.00
2019-03-03T09:52:09.038Z,11.00
2019-03-03T09:55:08.230Z,10.70
2019-03-03T10:01:09.858Z,12.40
2019-03-03T10:04:09.514Z,10.60
2019-03-03T10:06:59.059Z,10.60
2019-03-03T10:09:42.111Z,10.70
2019-03-03T10:12:41.220Z,10.90
2019-03-03T10:15:28.060Z,12.30
2019-03-03T10:18:34.255Z,11.30
2019-03-03T10:21:15.946Z,12.40
2019-03-03T10:24:22.104Z,11.70
2019-03-03T10:27:08.637Z,12.00
2019-03-03T10:30:14.967Z,11.80
2019-03-03T10:32:52.641Z,12.40
2019-03-03T10:35:54.402Z,11.50
2019-03-03T10:38:49.206Z,11.70
2019-03-03T10:41:35.942Z,11.30
2019-03-03T10:44:22.603Z,11.40
2019-03-03T10:47:28.885Z,11.30
2019-03-03T10:53:27.275Z,12.60
2019-03-03T10:56:26.863Z,13.00
2019-03-03T10:59:20.705Z,11.20
2019-03-03T11:02:19.653Z,12.10
2019-03-03T11:05:18.754Z,11.10
2019-03-03T11:08:18.012Z,11.10
2019-03-03T11:11:17.228Z,12.20
2019-03-03T11:14:16.137Z,11.30
2019-03-03T11:17:15.482Z,11.20
2019-03-03T11:19:48.638Z,11.10
2019-03-03T11:22:55.322Z,11.30
2019-03-03T11:25:53.551Z,11.50
2019-03-03T11:28:40.591Z,11.60
2019-03-03T11:31:16.534Z,11.40
2019-03-03T11:34:22.698Z,11.30
2019-03-03T11:37:28.855Z,11.30
2019-03-03T11:40:35.006Z,11.60
2019-03-03T11:43:41.466Z,11.30
2019-03-03T11:46:44.134Z,12.00
2019-03-03T11:49:35.855Z,11.30
2019-03-03T11:52:32.763Z,11.90
2019-03-03T11:55:32.126Z,12.30
2019-03-03T11:58:22.455Z,12.10
2019-03-03T12:01:21.504Z,9.90
2019-03-03T12:04:20.612Z,11.70
2019-03-03T12:07:20.043Z,10.40
2019-03-03T12:10:19.180Z,12.10
2019-03-03T12:16:21.388Z,11.00
2019-03-03T12:19:13.127Z,11.10
2019-03-03T12:21:48.020Z,11.30
2019-03-03T12:24:54.519Z,11.50
2019-03-03T12:30:47.392Z,11.80
2019-03-03T12:33:53.651Z,11.80
2019-03-03T12:36:59.856Z,11.80
2019-03-03T12:40:06.064Z,12.00
2019-03-03T12:42:45.147Z,11.90
2019-03-03T12:45:31.569Z,12.20
2019-03-03T12:48:18.464Z,12.50
2019-03-03T12:51:24.887Z,12.40
2019-03-03T12:54:11.581Z,12.30
2019-03-03T12:57:17.903Z,12.10
2019-03-03T13:00:19.575Z,11.00
2019-03-03T13:03:16.730Z,12.20
2019-03-03T13:06:24.525Z,11.50
2019-03-03T13:09:11.178Z,11.70
2019-03-03T13:12:17.334Z,11.70
2019-03-03T13:15:14.722Z,12.40
2019-03-03T13:18:01.387Z,11.50
2019-03-03T13:20:48.119Z,11.60
2019-03-03T13:23:54.542Z,11.60
2019-03-03T13:27:00.698Z,11.60
2019-03-03T13:30:06.892Z,11.60
2019-03-03T13:33:13.122Z,12.00
2019-03-03T13:36:19.340Z,10.60
2019-03-03T13:39:26.236Z,11.80
2019-03-03T13:42:32.387Z,12.00
2019-03-03T13:45:40.331Z,9.70
2019-03-03T13:48:26.947Z,11.60
2019-03-03T13:51:13.727Z,12.00
2019-03-03T13:53:54.533Z,11.80
2019-03-03T13:56:34.341Z,12.40
2019-03-03T13:59:14.183Z,11.70
2019-03-03T14:01:54.514Z,11.00
2019-03-03T14:04:34.684Z,12.50
2019-03-03T14:07:14.466Z,11.60
2019-03-03T14:09:54.346Z,10.40
2019-03-03T14:12:33.533Z,11.70
2019-03-03T14:15:13.573Z,11.70
2019-03-03T14:17:53.729Z,12.50
2019-03-03T14:20:34.411Z,11.80
2019-03-03T14:23:13.889Z,12.10
2019-03-03T14:25:54.109Z,11.20
2019-03-03T14:28:33.665Z,11.80
2019-03-03T14:31:13.590Z,10.30
2019-03-03T14:33:53.567Z,11.90
2019-03-03T14:36:33.769Z,11.90
2019-03-03T14:39:13.674Z,11.90
2019-03-03T14:41:53.628Z,11.90
2019-03-03T14:44:33.753Z,11.90
2019-03-03T14:47:13.172Z,13.20
2019-03-03T14:49:53.412Z,12.90
2019-03-03T14:52:33.018Z,12.20
2019-03-03T14:55:12.853Z,12.20
2019-03-03T14:57:53.046Z,13.40
2019-03-03T15:00:33.401Z,12.40
2019-03-03T15:03:13.249Z,12.30
2019-03-03T15:05:52.536Z,12.30
2019-03-03T15:08:32.518Z,12.20
2019-03-03T15:11:12.436Z,11.90
2019-03-03T15:13:52.653Z,11.90
2019-03-03T15:16:32.822Z,12.00
2019-03-03T15:22:25.481Z,11.80
2019-03-03T15:24:52.566Z,11.80
2019-03-03T15:27:39.419Z,11.80
2019-03-03T15:30:26.358Z,11.10
2019-03-03T15:33:13.037Z,11.80
2019-03-03T15:35:59.449Z,11.80
2019-03-03T15:38:45.904Z,11.90
2019-03-03T15:41:32.746Z,11.90
2019-03-03T15:44:19.490Z,12.70
2019-03-03T15:47:06.005Z,11.80
2019-03-03T15:49:53.565Z,11.80
2019-03-03T15:52:33.520Z,11.30
2019-03-03T15:55:00.438Z,12.60
2019-03-03T15:57:47.026Z,11.60
2019-03-03T16:00:33.549Z,11.40
2019-03-03T16:03:00.541Z,12.50
2019-03-03T16:05:47.097Z,11.60
2019-03-03T16:08:33.518Z,11.60
2019-03-03T16:11:20.198Z,11.80
2019-03-03T16:14:06.601Z,10.90
2019-03-03T16:16:33.789Z,12.00
2019-03-03T16:19:20.281Z,11.70
2019-03-03T16:22:07.517Z,11.10
2019-03-03T16:24:54.163Z,11.60
2019-03-03T16:27:40.705Z,11.40
2019-03-03T16:30:27.475Z,11.50
2019-03-03T16:33:20.579Z,11.60
2019-03-03T16:36:02.789Z,11.50
2019-03-03T16:38:49.914Z,11.50
2019-03-03T16:41:36.757Z,11.30
2019-03-03T16:44:23.564Z,11.70
2019-03-03T16:47:10.173Z,11.40
2019-03-03T16:49:56.853Z,11.30
2019-03-03T16:52:36.430Z,10.90
2019-03-03T16:55:16.492Z,11.40
2019-03-03T16:57:56.476Z,11.40
2019-03-03T17:00:37.398Z,13.20
2019-03-03T17:03:17.543Z,11.30
2019-03-03T17:05:57.732Z,11.20
2019-03-03T17:08:37.906Z,10.40
2019-03-03T17:11:18.295Z,11.30
2019-03-03T17:13:58.529Z,11.20
2019-03-03T17:16:38.491Z,11.20
2019-03-03T17:19:18.503Z,11.30
2019-03-03T17:21:57.668Z,11.80
2019-03-03T17:24:37.474Z,11.20
2019-03-03T17:27:17.601Z,11.00
2019-03-03T17:29:56.835Z,11.20
2019-03-03T17:32:36.077Z,11.20
2019-03-03T17:35:16.366Z,10.20
2019-03-03T17:37:56.963Z,11.00
2019-03-03T17:40:36.879Z,11.00
2019-03-03T17:43:17.033Z,10.70
2019-03-03T17:45:57.334Z,11.00
2019-03-03T17:48:37.083Z,10.60
2019-03-03T17:51:17.051Z,10.60
2019-03-03T17:53:57.159Z,10.60
2019-03-03T17:56:37.424Z,10.50
2019-03-03T17:59:17.469Z,9.60
2019-03-03T18:01:57.750Z,9.50
2019-03-03T18:04:37.390Z,9.90
2019-03-03T18:07:17.468Z,9.90
2019-03-03T18:09:44.614Z,10.40
2019-03-03T18:12:31.065Z,10.40
2019-03-03T18:14:58.119Z,10.10
2019-03-03T18:17:44.669Z,10.40
2019-03-03T18:20:31.570Z,10.50
2019-03-03T18:23:18.443Z,10.50
2019-03-03T18:26:05.298Z,10.40
2019-03-03T18:28:52.081Z,10.40
2019-03-03T18:31:38.857Z,10.50
2019-03-03T18:34:26.894Z,9.50
2019-03-03T18:37:13.661Z,10.30
2019-03-03T18:40:00.340Z,9.40
2019-03-03T18:42:47.194Z,9.90
2019-03-03T18:45:33.615Z,8.80
2019-03-03T18:48:20.145Z,10.00
2019-03-03T18:51:06.701Z,9.90
2019-03-03T18:53:46.543Z,9.90
2019-03-03T18:56:26.843Z,9.70
2019-03-03T18:59:07.827Z,9.10
2019-03-03T19:01:48.307Z,9.60
2019-03-03T19:04:28.351Z,9.20
2019-03-03T19:07:08.710Z,9.30
2019-03-03T19:09:49.095Z,9.30
2019-03-03T19:12:29.129Z,9.10
2019-03-03T19:15:08.866Z,8.30
2019-03-03T19:17:48.906Z,8.90
2019-03-03T19:20:29.299Z,9.80
2019-03-03T19:23:09.165Z,9.10
2019-03-03T19:25:49.260Z,9.40
2019-03-03T19:28:29.653Z,9.30
2019-03-03T19:31:09.468Z,9.50
2019-03-03T19:33:49.611Z,9.00
2019-03-03T19:36:29.632Z,9.50
2019-03-03T19:39:09.897Z,10.00
2019-03-03T19:41:50.245Z,8.90
2019-03-03T19:44:30.477Z,8.70
2019-03-03T19:47:09.997Z,9.10
2019-03-03T19:49:50.551Z,10.50
2019-03-03T19:52:30.794Z,9.00
2019-03-03T19:55:10.636Z,8.30
2019-03-03T19:57:51.202Z,7.10
2019-03-03T20:00:35.541Z,8.60
2019-03-03T20:03:25.314Z,8.50
2019-03-03T20:06:11.776Z,8.40
2019-03-03T20:08:58.203Z,8.50
2019-03-03T20:11:47.675Z,8.20
2019-03-03T20:14:13.710Z,10.40
2019-03-03T20:17:00.379Z,8.30
2019-03-03T20:19:47.096Z,8.80
2019-03-03T20:22:33.657Z,8.40
2019-03-03T20:25:20.429Z,8.20
2019-03-03T20:28:07.057Z,8.70
2019-03-03T20:30:53.702Z,8.10
2019-03-03T20:33:40.129Z,7.90
2019-03-03T20:36:26.817Z,7.90
2019-03-03T20:39:13.450Z,7.90
2019-03-03T20:42:00.225Z,8.00
2019-03-03T20:44:46.957Z,8.00
2019-03-03T20:47:14.026Z,9.10
2019-03-03T20:50:00.442Z,8.20
2019-03-03T20:52:28.828Z,8.80
2019-03-03T20:55:16.204Z,8.00
2019-03-03T20:58:03.182Z,8.20
2019-03-03T21:00:49.656Z,8.10
2019-03-03T21:06:17.863Z,8.30
2019-03-03T21:09:05.002Z,8.20
2019-03-03T21:11:51.547Z,8.40
2019-03-03T21:14:38.194Z,8.50
2019-03-03T21:17:25.005Z,8.80
2019-03-03T21:19:51.922Z,8.90
2019-03-03T21:22:38.453Z,9.10
2019-03-03T21:25:25.258Z,9.10
2019-03-03T21:27:52.443Z,9.80
2019-03-03T21:30:39.139Z,9.30
2019-03-03T21:33:25.547Z,9.30
2019-03-03T21:36:12.095Z,8.50
2019-03-03T21:38:58.668Z,9.50
2019-03-03T21:41:45.359Z,9.60
2019-03-03T21:44:32.073Z,9.30
2019-03-03T21:47:18.704Z,8.90
2019-03-03T21:49:45.633Z,9.10
2019-03-03T21:55:25.390Z,9.20
2019-03-03T21:58:11.809Z,9.40
2019-03-03T22:00:58.309Z,9.50
2019-03-03T22:03:44.919Z,10.20
2019-03-03T22:06:31.358Z,9.50
2019-03-03T22:09:18.203Z,9.50
2019-03-03T22:12:04.706Z,9.40
2019-03-03T22:14:51.124Z,8.80
2019-03-03T22:17:37.953Z,9.50
2019-03-03T22:20:24.522Z,9.50
2019-03-03T22:23:10.960Z,9.70
2019-03-03T22:25:57.831Z,9.50
2019-03-03T22:28:25.107Z,9.40
2019-03-03T22:31:11.768Z,9.30
2019-03-03T22:33:58.473Z,9.30
2019-03-03T22:36:44.997Z,9.50
2019-03-03T22:39:31.502Z,9.20
2019-03-03T22:42:18.008Z,9.50
2019-03-03T22:44:44.899Z,8.70
2019-03-03T22:47:31.503Z,9.10
2019-03-03T22:50:18.151Z,8.50
2019-03-03T22:52:57.528Z,9.60
2019-03-03T22:55:37.604Z,8.60
2019-03-03T22:58:17.616Z,9.40
2019-03-03T23:01:11.520Z,9.60
2019-03-03T23:04:17.616Z,8.90
2019-03-03T23:07:23.746Z,9.00
2019-03-03T23:10:13.054Z,10.30
2019-03-03T23:13:02.453Z,9.30
2019-03-03T23:16:08.585Z,9.40
2019-03-03T23:19:14.629Z,9.60
2019-03-03T23:22:20.763Z,9.90
2019-03-03T23:25:26.815Z,9.50
2019-03-03T23:28:13.406Z,9.40
2019-03-03T23:30:59.825Z,9.60
2019-03-03T23:33:46.242Z,9.40
2019-03-03T23:36:32.766Z,9.50
2019-03-03T23:39:19.189Z,9.70
2019-03-03T23:42:05.613Z,9.30
2019-03-03T23:44:52.023Z,9.40
2019-03-03T23:47:38.410Z,8.60
2019-03-03T23:50:05.417Z,9.20
2019-03-03T23:52:45.642Z,9.30
2019-03-03T23:55:24.833Z,9.50
2019-03-03T23:58:04.672Z,9.50
